East Coast: Past 24 Hour Conditions

 

Blanc-Sablon Airport

02:00 AM AST 23 September 2014
This table is a summary of hourly weather conditions for the past 24 hours.
Date / Time
(AST)
Wind(knots) Conditions Visibility(km) Pressure(kPa) Air tempC) Relative humidity(%) Dew pointC)
23 September 2014
2:00 SW 23 gust 33 Fog 10 99.1 12 99 12
1:00 SW 25 gust 34 Light Drizzle 5 99.1 12 100 12
0:00 SW 13 gust 20 Light Drizzle 0.2 99.2 12 100 12
22 September 2014
23:00 SW 16 gust 24 Light Drizzle 0.2 99.2 12 100 12
22:00 SW 21 gust 28 Light Drizzle 0.2 99.2 12 100 12
21:00 SW 17 gust 24 Light Drizzle 0.2 99.2 12 100 12
20:00 SW 18 gust 24 Light Drizzle 0.2 99.2 12 100 12
19:00 SW 18 gust 25 Light Drizzle 0.2 99.2 11 100 11
18:00 SW 20 gust 30 Light Drizzle 0.4 99.0 11 100 11
17:00 SW 22 gust 31 Light Drizzle 0.4 98.9 11 100 11
16:00 SW 21 gust 32 Light Drizzle 0.8 98.8 13 100 13
15:00 SW 22 gust 30 Light Rain 1 98.8 14 100 14
14:00 S 15 gust 22 Light Rain 2 98.8 16 99 16
13:00 SSE 17 gust 27 Light Rain 10 N/A 17 94 16
12:00 SE 21 gust 26 Light Rain 10 N/A 15 99 15
11:00 SE 19 gust 25 Heavy Rain 2 99.6 15 99 15
10:00 E 21 gust 31 Rain 5 99.9 16 99 16
9:00 E 20 gust 25 Rain 4 100.2 16 98 15
8:00 E 17 Rain 4 100.5 15 99 15
7:00 E 7 Light Rain 2 100.7 14 100 14
6:00 calm Light Rain 2 100.9 13 99 13
5:00 NNE 5 Light Rain 4 100.9 12 99 12
4:00 E 3 Fog 4 101.0 11 97 11
3:00 ESE 4 Fog 5 101.0 11 96 10
2:00 WNW 2 Fog 5 101.0 10 96 10
 
Map of Atlantic - Newfoundland marine weather areas Southwestern Grand Banks - 44138 Banquereau - 44139 Tail of the Bank - 44140 Nickerson Bank - 44251 Northeast Burgeo Bank - 44255 Blanc-Sablon Airport Cap Whittle Chevery Natashquan Airport Heath Point Miscou Island Grand Étang Ingonish Beach North Mountain St.Paul Island J.A. Douglas McCurdy Sydney Airport Charlottetown Airport East Point North Cape Argentia Bonavista Burgeo Cape Race Corner Brook Daniel's Harbour Englee Ferolle Point La Scie Port aux Basques Rocky Harbour Sagona Island St. Anthony Airport St. John's Int'l Airport St. Lawrence Stephenville Airport Twillingate Winterland Wreckhouse Cartwright Airport Mary's Harbour Grates Cove Pool's Island Marticot Island Long Pond Îles de la Madeleine Airport
Legend: buoyBuoy land stationLand Station